createdAt,value
2022-10-22T00:01:04.142Z,96.47
2022-10-22T00:03:38.216Z,97.72
2022-10-22T00:06:05.831Z,85.47
2022-10-22T00:08:33.368Z,85.70
2022-10-22T00:11:08.455Z,86.20
2022-10-22T00:13:36.225Z,93.97
2022-10-22T00:16:03.461Z,83.35
2022-10-22T00:18:31.382Z,88.03
2022-10-22T00:20:58.592Z,85.75
2022-10-22T00:23:26.143Z,77.28
2022-10-22T00:25:57.465Z,79.07
2022-10-22T00:28:25.325Z,74.53
2022-10-22T00:30:57.896Z,62.78
2022-10-22T00:33:25.914Z,78.32
2022-10-22T00:35:53.239Z,135.35
2022-10-22T00:38:20.850Z,121.03
2022-10-22T00:40:48.582Z,95.75
2022-10-22T00:43:18.714Z,78.25
2022-10-22T00:45:46.374Z,76.10
2022-10-22T00:48:18.995Z,70.95
2022-10-22T00:50:53.126Z,85.43
2022-10-22T00:53:25.575Z,85.25
2022-10-22T00:55:54.814Z,82.80
2022-10-22T00:58:27.420Z,85.20
2022-10-22T01:00:55.929Z,80.13
2022-10-22T01:03:23.520Z,76.68
2022-10-22T01:06:01.780Z,75.68
2022-10-22T01:08:47.488Z,80.13
2022-10-22T01:11:26.870Z,76.90
2022-10-22T01:14:03.549Z,72.57
2022-10-22T01:16:55.050Z,79.25
2022-10-22T01:19:28.165Z,77.53
2022-10-22T01:22:28.340Z,81.50
2022-10-22T01:24:55.878Z,76.90
2022-10-22T01:27:42.903Z,75.72
2022-10-22T01:30:12.826Z,67.22
2022-10-22T01:32:44.010Z,71.32
2022-10-22T01:35:15.960Z,85.60
2022-10-22T01:37:49.186Z,76.13
2022-10-22T01:40:18.144Z,80.95
2022-10-22T01:43:02.070Z,79.40
2022-10-22T01:45:34.967Z,77.63
2022-10-22T01:48:16.637Z,85.22
2022-10-22T01:51:02.621Z,80.18
2022-10-22T01:53:37.868Z,81.63
2022-10-22T01:56:41.116Z,86.13
2022-10-22T01:59:32.622Z,71.22
2022-10-22T02:02:04.565Z,73.78
2022-10-22T02:04:46.601Z,78.80
2022-10-22T02:07:18.486Z,76.03
2022-10-22T02:09:47.077Z,83.20
2022-10-22T02:12:15.180Z,78.07
2022-10-22T02:14:45.052Z,77.50
2022-10-22T02:17:19.140Z,81.63
2022-10-22T02:19:49.080Z,77.80
2022-10-22T02:22:16.625Z,77.65
2022-10-22T02:24:44.056Z,84.18
2022-10-22T02:27:14.477Z,73.97
2022-10-22T02:30:10.114Z,72.70
2022-10-22T02:32:49.750Z,80.43
2022-10-22T02:35:21.265Z,72.65
2022-10-22T02:37:50.606Z,72.18
2022-10-22T02:40:19.134Z,81.50
2022-10-22T02:42:48.660Z,74.00
2022-10-22T02:45:16.830Z,75.50
2022-10-22T02:47:44.835Z,89.00
2022-10-22T02:50:12.061Z,89.50
2022-10-22T02:52:39.740Z,77.72
2022-10-22T02:55:08.066Z,82.15
2022-10-22T02:57:35.674Z,75.32
2022-10-22T03:00:03.695Z,76.07
2022-10-22T03:02:31.126Z,91.53
2022-10-22T03:05:01.384Z,88.07
2022-10-22T03:07:28.866Z,98.32
2022-10-22T03:09:56.011Z,89.53
2022-10-22T03:12:23.435Z,86.40
2022-10-22T03:14:50.556Z,84.57
2022-10-22T03:17:19.155Z,83.20
2022-10-22T03:19:46.280Z,74.07
2022-10-22T03:22:19.935Z,82.15
2022-10-22T03:24:51.020Z,81.35
2022-10-22T03:27:22.142Z,83.20
2022-10-22T03:29:51.557Z,92.78
2022-10-22T03:32:19.109Z,84.63
2022-10-22T03:34:46.346Z,77.57
2022-10-22T03:37:14.201Z,84.93
2022-10-22T03:39:41.679Z,106.00
2022-10-22T03:42:09.415Z,85.13
2022-10-22T03:44:38.932Z,91.68
2022-10-22T03:47:07.162Z,95.07
2022-10-22T03:49:34.411Z,93.57
2022-10-22T03:52:14.181Z,89.00
2022-10-22T03:54:42.694Z,85.00
2022-10-22T03:57:10.960Z,88.82
2022-10-22T03:59:44.072Z,87.18
2022-10-22T04:02:13.454Z,93.63
2022-10-22T04:04:40.681Z,124.70
2022-10-22T04:07:08.592Z,107.57
2022-10-22T04:09:36.164Z,93.57
2022-10-22T04:12:06.681Z,106.30
2022-10-22T04:14:34.352Z,96.10
2022-10-22T04:17:01.981Z,89.03
2022-10-22T04:19:29.695Z,92.03
2022-10-22T04:22:00.982Z,84.68
2022-10-22T04:24:30.165Z,88.22
2022-10-22T04:26:57.893Z,77.63
2022-10-22T04:29:27.540Z,82.30
2022-10-22T04:31:54.954Z,77.88
2022-10-22T04:34:22.245Z,84.82
2022-10-22T04:36:49.701Z,82.88
2022-10-22T04:39:16.935Z,89.82
2022-10-22T04:41:44.330Z,91.93
2022-10-22T04:44:13.791Z,84.90
2022-10-22T04:46:46.801Z,99.17
2022-10-22T04:49:14.045Z,90.53
2022-10-22T04:51:41.474Z,81.05
2022-10-22T04:54:08.710Z,79.95
2022-10-22T04:56:36.170Z,82.53
2022-10-22T04:59:08.214Z,81.07
2022-10-22T05:01:42.600Z,83.35
2022-10-22T05:04:16.900Z,74.55
2022-10-22T05:06:44.848Z,75.78
2022-10-22T05:09:16.308Z,75.07
2022-10-22T05:11:48.639Z,87.72
2022-10-22T05:14:19.165Z,79.78
2022-10-22T05:16:48.793Z,84.35
2022-10-22T05:19:28.529Z,93.05
2022-10-22T05:21:59.384Z,113.93
2022-10-22T05:24:28.204Z,105.53
2022-10-22T05:26:57.705Z,125.85
2022-10-22T05:29:25.983Z,123.35
2022-10-22T05:31:53.624Z,121.63
2022-10-22T05:34:20.884Z,134.63
2022-10-22T05:36:48.385Z,134.63
2022-10-22T05:39:15.851Z,205.15
2022-10-22T05:41:43.585Z,158.43
2022-10-22T05:44:12.224Z,153.60
2022-10-22T05:46:40.039Z,164.55
2022-10-22T05:49:07.943Z,164.40
2022-10-22T05:51:37.540Z,149.48
2022-10-22T05:54:08.440Z,138.63
2022-10-22T05:56:36.919Z,124.72
2022-10-22T05:59:04.963Z,143.05
2022-10-22T06:01:35.638Z,177.40
2022-10-22T06:04:06.115Z,156.80
2022-10-22T06:06:40.058Z,140.88
2022-10-22T06:09:15.657Z,111.13
2022-10-22T06:11:43.326Z,95.22
2022-10-22T06:14:11.284Z,101.18
2022-10-22T06:16:38.800Z,89.15
2022-10-22T06:19:06.427Z,86.72
2022-10-22T06:21:33.919Z,87.47
2022-10-22T06:24:02.553Z,88.95
2022-10-22T06:26:30.789Z,89.22
2022-10-22T06:28:58.772Z,93.57
2022-10-22T06:31:27.530Z,97.72
2022-10-22T06:33:56.534Z,96.00
2022-10-22T06:36:25.021Z,100.47
2022-10-22T06:38:53.962Z,90.97
2022-10-22T06:41:24.387Z,88.45
2022-10-22T06:43:54.774Z,82.65
2022-10-22T06:46:23.810Z,68.10
2022-10-22T06:48:53.096Z,53.35
2022-10-22T06:51:21.358Z,48.00
2022-10-22T06:53:49.642Z,55.80
2022-10-22T06:56:20.185Z,42.10
2022-10-22T06:58:52.101Z,42.38
2022-10-22T07:01:22.450Z,38.00
2022-10-22T07:03:53.746Z,41.65
2022-10-22T07:06:22.860Z,41.90
2022-10-22T07:08:50.556Z,36.33
2022-10-22T07:11:23.363Z,33.55
2022-10-22T07:13:51.436Z,37.92
2022-10-22T07:16:18.934Z,36.35
2022-10-22T07:18:47.235Z,29.63
2022-10-22T07:21:17.344Z,32.72
2022-10-22T07:23:45.362Z,24.08
2022-10-22T07:26:15.225Z,30.45
2022-10-22T07:28:43.125Z,29.30
2022-10-22T07:31:12.127Z,26.20
2022-10-22T07:33:40.515Z,24.60
2022-10-22T07:36:11.204Z,29.60
2022-10-22T07:38:38.580Z,38.97
2022-10-22T07:41:06.179Z,34.33
2022-10-22T07:43:33.545Z,26.20
2022-10-22T07:46:02.894Z,25.98
2022-10-22T07:48:30.545Z,34.05
2022-10-22T07:50:58.602Z,29.17
2022-10-22T07:53:25.848Z,31.15
2022-10-22T07:55:53.847Z,25.77
2022-10-22T07:58:22.123Z,37.22
2022-10-22T08:00:50.900Z,36.30
2022-10-22T08:03:18.746Z,33.03
2022-10-22T08:05:46.499Z,29.20
2022-10-22T08:08:15.526Z,28.75
2022-10-22T08:10:44.077Z,32.70
2022-10-22T08:13:11.600Z,30.27
2022-10-22T08:15:39.662Z,31.00
2022-10-22T08:18:06.954Z,28.85
2022-10-22T08:20:34.570Z,39.38
2022-10-22T08:23:02.127Z,36.50
2022-10-22T08:25:29.709Z,33.83
2022-10-22T08:27:56.959Z,46.42
2022-10-22T08:30:26.840Z,82.00
2022-10-22T08:32:54.262Z,55.33
2022-10-22T08:35:22.589Z,66.53
2022-10-22T08:37:49.795Z,63.33
2022-10-22T08:40:26.559Z,56.85
2022-10-22T08:43:38.209Z,53.45
2022-10-22T08:46:54.518Z,48.92
2022-10-22T08:49:28.561Z,63.30
2022-10-22T08:51:59.765Z,58.20
2022-10-22T08:54:36.999Z,50.28
2022-10-22T08:57:19.352Z,47.08
2022-10-22T08:59:54.355Z,68.40
2022-10-22T09:02:41.198Z,41.27
2022-10-22T09:05:12.401Z,40.83
2022-10-22T09:07:44.043Z,46.60
2022-10-22T09:10:13.233Z,36.63
2022-10-22T09:12:41.000Z,41.33
2022-10-22T09:15:13.984Z,35.03
2022-10-22T09:18:08.831Z,39.80
2022-10-22T09:20:48.459Z,39.15
2022-10-22T09:23:37.951Z,46.50
2022-10-22T09:26:14.591Z,33.17
2022-10-22T09:28:43.121Z,41.47
2022-10-22T09:31:12.970Z,47.45
2022-10-22T09:33:42.099Z,54.03
2022-10-22T09:36:16.143Z,100.60
2022-10-22T09:38:52.874Z,64.88
2022-10-22T09:41:24.096Z,50.80
2022-10-22T09:43:52.255Z,44.92
2022-10-22T09:46:27.424Z,44.15
2022-10-22T09:49:07.311Z,42.60
2022-10-22T09:51:46.745Z,40.63
2022-10-22T09:54:39.964Z,36.08
2022-10-22T09:57:22.252Z,39.30
2022-10-22T09:59:52.701Z,35.25
2022-10-22T10:02:42.522Z,35.45
2022-10-22T10:05:25.942Z,34.17
2022-10-22T10:07:53.332Z,55.67
2022-10-22T10:10:32.741Z,51.67
2022-10-22T10:13:35.602Z,47.58
2022-10-22T10:16:21.441Z,51.13
2022-10-22T10:19:07.184Z,52.60
2022-10-22T10:21:43.255Z,42.40
2022-10-22T10:24:47.934Z,49.92
2022-10-22T10:27:31.732Z,47.83
2022-10-22T10:30:18.672Z,49.22
2022-10-22T10:33:01.491Z,53.38
2022-10-22T10:35:39.032Z,51.05
2022-10-22T10:38:11.793Z,45.03
2022-10-22T10:40:48.711Z,53.05
2022-10-22T10:43:51.545Z,45.65
2022-10-22T10:46:54.139Z,60.30
2022-10-22T10:49:27.634Z,75.50
2022-10-22T10:52:11.725Z,81.30
2022-10-22T10:54:49.834Z,54.22
2022-10-22T10:57:46.875Z,44.35
2022-10-22T11:00:18.534Z,44.55
2022-10-22T11:03:23.060Z,56.78
2022-10-22T11:05:55.986Z,56.22
2022-10-22T11:08:34.436Z,42.63
2022-10-22T11:11:10.036Z,50.40
2022-10-22T11:14:00.481Z,49.80
2022-10-22T11:16:39.159Z,41.38
2022-10-22T11:19:15.503Z,63.25
2022-10-22T11:22:05.331Z,42.03
2022-10-22T11:24:41.760Z,49.05
2022-10-22T11:27:37.680Z,44.63
2022-10-22T11:30:17.315Z,46.22
2022-10-22T11:33:00.080Z,50.05
2022-10-22T11:35:33.100Z,47.08
2022-10-22T11:38:03.156Z,48.65
2022-10-22T11:40:36.320Z,47.45
2022-10-22T11:43:25.333Z,43.70
2022-10-22T11:46:01.166Z,41.08
2022-10-22T11:48:37.381Z,58.53
2022-10-22T11:51:25.011Z,85.43
2022-10-22T11:53:57.834Z,58.17
2022-10-22T11:56:27.315Z,67.60
2022-10-22T11:58:56.990Z,146.75
2022-10-22T12:01:42.061Z,160.48
2022-10-22T12:04:17.281Z,94.50
2022-10-22T12:07:04.612Z,106.40
2022-10-22T12:09:33.042Z,132.32
2022-10-22T12:12:14.851Z,125.65
2022-10-22T12:14:58.554Z,137.65
2022-10-22T12:17:28.766Z,123.47
2022-10-22T12:20:07.600Z,131.13
2022-10-22T12:22:41.732Z,149.60
2022-10-22T12:25:23.744Z,124.72
2022-10-22T12:27:56.095Z,99.50
2022-10-22T12:30:27.579Z,131.55
2022-10-22T12:33:03.013Z,157.57
2022-10-22T12:35:42.280Z,136.63
2022-10-22T12:38:24.114Z,132.07
2022-10-22T12:40:55.660Z,135.30
2022-10-22T12:43:27.275Z,120.32
2022-10-22T12:45:55.954Z,117.80
2022-10-22T12:48:37.132Z,112.82
2022-10-22T12:51:08.334Z,106.68
2022-10-22T12:53:48.370Z,86.18
2022-10-22T12:56:22.282Z,81.90
2022-10-22T12:59:15.726Z,85.53
2022-10-22T13:01:47.690Z,85.00
2022-10-22T13:04:23.104Z,99.22
2022-10-22T13:07:18.351Z,92.00
2022-10-22T13:10:01.763Z,95.43
2022-10-22T13:12:39.400Z,87.30
2022-10-22T13:15:37.077Z,93.13
2022-10-22T13:18:26.142Z,93.37
2022-10-22T13:21:03.268Z,98.60
2022-10-22T13:23:36.948Z,99.22
2022-10-22T13:26:14.466Z,104.50
2022-10-22T13:28:43.132Z,112.60
2022-10-22T13:31:17.550Z,116.40
2022-10-22T13:33:47.600Z,123.10
2022-10-22T13:36:16.650Z,136.45
2022-10-22T13:38:45.180Z,141.98
2022-10-22T13:41:23.685Z,151.82
2022-10-22T13:43:52.684Z,134.95
2022-10-22T13:46:21.154Z,130.57
2022-10-22T13:48:51.085Z,151.48
2022-10-22T13:51:24.220Z,173.10
2022-10-22T13:53:55.782Z,184.30
2022-10-22T13:56:24.321Z,199.23
2022-10-22T13:58:52.243Z,215.82
2022-10-22T14:01:27.706Z,202.00
2022-10-22T14:03:58.259Z,210.60
2022-10-22T14:06:29.080Z,249.05
2022-10-22T14:09:00.389Z,275.95
2022-10-22T14:11:28.674Z,262.23
2022-10-22T14:13:56.780Z,228.80
2022-10-22T14:16:27.041Z,214.25
2022-10-22T14:18:55.983Z,214.85
2022-10-22T14:21:23.428Z,196.57
2022-10-22T14:23:53.044Z,173.90
2022-10-22T14:26:31.573Z,193.07
2022-10-22T14:29:15.956Z,204.85
2022-10-22T14:31:45.120Z,192.68
2022-10-22T14:34:15.113Z,162.18
2022-10-22T14:36:46.041Z,175.90
2022-10-22T14:39:14.391Z,135.93
2022-10-22T14:41:44.320Z,159.73
2022-10-22T14:44:14.532Z,138.88
2022-10-22T14:46:44.422Z,182.25
2022-10-22T14:49:12.912Z,196.23
2022-10-22T14:51:40.491Z,191.48
2022-10-22T14:54:08.178Z,171.60
2022-10-22T14:59:08.216Z,170.18
2022-10-22T15:01:35.672Z,173.05
2022-10-22T15:04:03.676Z,184.63
2022-10-22T15:06:31.023Z,153.63
2022-10-22T15:08:58.878Z,141.57
2022-10-22T15:11:27.042Z,148.38
2022-10-22T15:13:54.577Z,133.93
2022-10-22T15:16:21.997Z,135.32
2022-10-22T15:18:49.469Z,144.88
2022-10-22T15:21:22.091Z,151.23
2022-10-22T15:23:50.159Z,155.68
2022-10-22T15:26:17.735Z,170.13
2022-10-22T15:28:45.354Z,178.75
2022-10-22T15:31:14.507Z,195.35
2022-10-22T15:33:43.880Z,217.88
2022-10-22T15:36:14.182Z,270.00
2022-10-22T15:38:42.499Z,347.02
2022-10-22T15:41:12.680Z,440.17
2022-10-22T15:43:40.491Z,410.88
2022-10-22T15:46:16.855Z,378.05
2022-10-22T15:48:45.440Z,357.40
2022-10-22T15:51:15.415Z,360.13
2022-10-22T15:53:43.305Z,348.80
2022-10-22T15:56:12.228Z,329.73
2022-10-22T15:58:39.829Z,289.90
2022-10-22T16:01:09.164Z,250.38
2022-10-22T16:03:37.116Z,218.32
2022-10-22T16:06:05.421Z,229.63
2022-10-22T16:08:34.253Z,238.60
2022-10-22T16:11:01.845Z,242.77
2022-10-22T16:13:29.461Z,246.63
2022-10-22T16:15:56.681Z,256.17
2022-10-22T16:18:24.122Z,276.52
2022-10-22T16:20:51.444Z,405.52
2022-10-22T16:23:19.225Z,399.90
2022-10-22T16:25:47.251Z,384.15
2022-10-22T16:28:16.007Z,371.23
2022-10-22T16:30:44.155Z,394.00
2022-10-22T16:33:12.462Z,433.80
2022-10-22T16:35:42.095Z,461.35
2022-10-22T16:38:11.180Z,426.38
2022-10-22T16:40:39.014Z,422.08
2022-10-22T16:43:06.692Z,453.80
2022-10-22T16:45:33.893Z,464.13
2022-10-22T16:48:01.568Z,452.52
2022-10-22T16:50:29.300Z,415.90
2022-10-22T16:52:57.303Z,402.33
2022-10-22T16:55:24.671Z,423.02
2022-10-22T16:57:53.590Z,431.90
2022-10-22T17:00:24.802Z,432.48
2022-10-22T17:02:55.680Z,409.92
2022-10-22T17:05:24.102Z,408.80
2022-10-22T17:07:51.972Z,427.05
2022-10-22T17:10:20.241Z,497.02
2022-10-22T17:12:48.572Z,500.92
2022-10-22T17:15:16.107Z,468.23
2022-10-22T17:17:43.725Z,417.23
2022-10-22T17:20:11.459Z,413.35
2022-10-22T17:22:38.995Z,470.95
2022-10-22T17:25:13.921Z,460.25
2022-10-22T17:27:43.349Z,451.08
2022-10-22T17:30:16.772Z,426.63
2022-10-22T17:32:47.376Z,436.05
2022-10-22T17:35:16.665Z,392.58
2022-10-22T17:37:44.583Z,331.88
2022-10-22T17:40:13.827Z,352.63
2022-10-22T17:42:41.679Z,306.67
2022-10-22T17:45:09.385Z,182.63
2022-10-22T17:47:37.071Z,132.55
2022-10-22T17:50:04.640Z,76.57
2022-10-22T17:52:32.350Z,79.72
2022-10-22T17:54:59.565Z,74.40
2022-10-22T17:57:27.578Z,58.28
2022-10-22T17:59:54.855Z,67.50
2022-10-22T18:02:22.581Z,63.25
2022-10-22T18:04:53.435Z,73.25
2022-10-22T18:07:21.274Z,63.42
2022-10-22T18:09:48.993Z,71.10
2022-10-22T18:12:18.239Z,78.38
2022-10-22T18:14:47.281Z,72.72
2022-10-22T18:19:44.605Z,67.60
2022-10-22T18:22:14.293Z,64.97
2022-10-22T18:24:41.731Z,70.93
2022-10-22T18:27:09.341Z,71.80
2022-10-22T18:29:39.505Z,68.03
2022-10-22T18:32:12.156Z,62.85
2022-10-22T18:34:40.399Z,66.63
2022-10-22T18:37:07.936Z,63.58
2022-10-22T18:39:35.272Z,60.20
2022-10-22T18:42:07.364Z,60.42
2022-10-22T18:44:35.556Z,62.17
2022-10-22T18:47:03.528Z,61.90
2022-10-22T18:49:30.860Z,51.72
2022-10-22T18:51:58.317Z,55.67
2022-10-22T18:54:25.606Z,64.28
2022-10-22T18:57:00.530Z,70.68
2022-10-22T18:59:30.219Z,60.80
2022-10-22T19:01:59.816Z,55.15
2022-10-22T19:04:33.398Z,56.03
2022-10-22T19:07:01.266Z,68.50
2022-10-22T19:09:29.060Z,51.78
2022-10-22T19:11:56.685Z,47.47
2022-10-22T19:14:23.950Z,49.53
2022-10-22T19:16:51.980Z,48.83
2022-10-22T19:19:21.834Z,49.00
2022-10-22T19:21:49.630Z,34.60
2022-10-22T19:24:18.405Z,34.72
2022-10-22T19:26:47.042Z,38.30
2022-10-22T19:29:19.435Z,33.42
2022-10-22T19:31:47.911Z,29.00
2022-10-22T19:34:15.287Z,24.92
2022-10-22T19:36:42.940Z,25.30
2022-10-22T19:39:10.335Z,29.65
2022-10-22T19:41:37.970Z,32.15
2022-10-22T19:44:05.346Z,35.10
2022-10-22T19:46:33.076Z,29.45
2022-10-22T19:49:02.802Z,37.38
2022-10-22T19:51:31.756Z,30.80
2022-10-22T19:54:01.041Z,25.65
2022-10-22T19:56:29.801Z,24.77
2022-10-22T19:58:58.073Z,23.30
2022-10-22T20:01:26.510Z,21.33
2022-10-22T20:03:54.393Z,22.63
2022-10-22T20:06:22.260Z,24.83
2022-10-22T20:08:52.349Z,18.45
2022-10-22T20:11:32.167Z,22.45
2022-10-22T20:13:59.751Z,21.58
2022-10-22T20:16:31.000Z,16.45
2022-10-22T20:19:05.987Z,17.13
2022-10-22T20:21:34.965Z,17.73
2022-10-22T20:24:02.420Z,17.80
2022-10-22T20:26:32.596Z,15.35
2022-10-22T20:29:00.191Z,16.05
2022-10-22T20:31:29.565Z,16.73
2022-10-22T20:33:58.864Z,15.68
2022-10-22T20:36:28.290Z,17.65
2022-10-22T20:39:02.965Z,19.08
2022-10-22T20:41:34.295Z,17.42
2022-10-22T20:44:02.084Z,17.90
2022-10-22T20:46:37.315Z,17.73
2022-10-22T20:49:10.585Z,17.25
2022-10-22T20:51:38.693Z,14.50
2022-10-22T20:54:07.749Z,13.45
2022-10-22T20:56:41.247Z,15.55
2022-10-22T20:59:11.276Z,13.82
2022-10-22T21:01:45.055Z,14.10
2022-10-22T21:04:12.843Z,12.85
2022-10-22T21:06:43.060Z,14.55
2022-10-22T21:09:13.105Z,13.30
2022-10-22T21:11:42.474Z,12.77
2022-10-22T21:14:11.853Z,12.93
2022-10-22T21:16:47.283Z,13.55
2022-10-22T21:19:14.535Z,13.10
2022-10-22T21:21:42.370Z,14.20
2022-10-22T21:24:10.013Z,17.00
2022-10-22T21:26:41.820Z,18.05
2022-10-22T21:29:11.229Z,16.60
2022-10-22T21:31:40.604Z,13.77
2022-10-22T21:34:08.270Z,12.65
2022-10-22T21:36:35.837Z,13.77
2022-10-22T21:39:03.357Z,12.25
2022-10-22T21:41:30.916Z,10.55
2022-10-22T21:43:58.254Z,12.63
2022-10-22T21:46:28.196Z,15.52
2022-10-22T21:48:58.295Z,13.95
2022-10-22T21:51:26.430Z,16.02
2022-10-22T21:53:55.166Z,13.00
2022-10-22T21:56:29.176Z,12.45
2022-10-22T21:58:56.685Z,19.40
2022-10-22T22:01:24.349Z,16.65
2022-10-22T22:03:52.686Z,11.50
2022-10-22T22:06:23.021Z,12.63
2022-10-22T22:08:52.730Z,8.38
2022-10-22T22:11:30.262Z,10.23
2022-10-22T22:13:58.772Z,10.25
2022-10-22T22:16:29.283Z,7.63
2022-10-22T22:18:59.985Z,9.48
2022-10-22T22:21:28.410Z,10.13
2022-10-22T22:23:57.065Z,11.30
2022-10-22T22:26:28.718Z,10.68
2022-10-22T22:29:01.396Z,9.35
2022-10-22T22:31:32.250Z,11.88
2022-10-22T22:34:06.685Z,9.02
2022-10-22T22:36:40.601Z,9.77
2022-10-22T22:39:20.493Z,10.68
2022-10-22T22:41:48.246Z,10.45
2022-10-22T22:44:16.351Z,9.15
2022-10-22T22:46:44.026Z,13.63
2022-10-22T22:49:12.804Z,12.20
2022-10-22T22:51:40.822Z,9.07
2022-10-22T22:54:08.115Z,9.18
2022-10-22T22:56:36.105Z,9.02
2022-10-22T22:59:05.141Z,10.02
2022-10-22T23:01:38.633Z,8.15
2022-10-22T23:04:16.569Z,11.07
2022-10-22T23:06:47.145Z,14.57
2022-10-22T23:09:16.204Z,13.15
2022-10-22T23:11:46.005Z,12.45
2022-10-22T23:14:15.035Z,13.82
2022-10-22T23:16:46.464Z,13.27
2022-10-22T23:19:15.918Z,15.27
2022-10-22T23:21:49.733Z,13.98
2022-10-22T23:24:20.945Z,12.10
2022-10-22T23:26:50.600Z,13.55
2022-10-22T23:29:18.815Z,11.98
2022-10-22T23:31:47.600Z,13.82
2022-10-22T23:36:47.123Z,16.42
2022-10-22T23:39:17.991Z,14.23
2022-10-22T23:41:45.736Z,13.88
2022-10-22T23:44:13.603Z,11.90
2022-10-22T23:46:41.535Z,13.77
2022-10-22T23:49:09.975Z,12.82
2022-10-22T23:51:38.510Z,14.45
2022-10-22T23:54:14.592Z,14.20
2022-10-22T23:56:42.495Z,9.43
2022-10-22T23:59:10.357Z,12.88
